sensor_id;sensor_type;location;lat;lon;timestamp;pressure;altitude;pressure_sealevel;temperature;humidity
45523;BME280;31254;51.680;5.394;2023-01-31T00:01:36;102509.22;;;3.00;85.38
45523;BME280;31254;51.680;5.394;2023-01-31T00:04:07;102527.66;;;3.10;85.50
45523;BME280;31254;51.680;5.394;2023-01-31T00:06:37;102532.13;;;3.11;85.44
45523;BME280;31254;51.680;5.394;2023-01-31T00:09:06;102451.28;;;2.64;85.93
45523;BME280;31254;51.680;5.394;2023-01-31T00:11:33;102504.22;;;2.89;85.61
45523;BME280;31254;51.680;5.394;2023-01-31T00:14:02;102500.78;;;2.85;85.96
45523;BME280;31254;51.680;5.394;2023-01-31T00:16:30;102514.00;;;2.91;86.02
45523;BME280;31254;51.680;5.394;2023-01-31T00:18:59;102535.28;;;2.99;85.58
45523;BME280;31254;51.680;5.394;2023-01-31T00:21:29;102535.34;;;2.98;85.70
45523;BME280;31254;51.680;5.394;2023-01-31T00:23:57;102539.97;;;2.94;85.96
45523;BME280;31254;51.680;5.394;2023-01-31T00:26:29;102544.44;;;2.95;86.61
45523;BME280;31254;51.680;5.394;2023-01-31T00:28:59;102553.53;;;2.92;85.78
45523;BME280;31254;51.680;5.394;2023-01-31T00:31:28;102555.50;;;2.87;86.19
45523;BME280;31254;51.680;5.394;2023-01-31T00:33:56;102536.88;;;2.81;85.84
45523;BME280;31254;51.680;5.394;2023-01-31T00:36:31;102546.50;;;2.88;86.33
45523;BME280;31254;51.680;5.394;2023-01-31T00:38:59;102532.25;;;2.85;86.06
45523;BME280;31254;51.680;5.394;2023-01-31T00:41:28;102540.31;;;2.85;85.86
45523;BME280;31254;51.680;5.394;2023-01-31T00:43:55;102511.09;;;2.74;86.20
45523;BME280;31254;51.680;5.394;2023-01-31T00:46:22;102523.28;;;2.84;85.97
45523;BME280;31254;51.680;5.394;2023-01-31T00:48:54;102521.34;;;2.88;85.61
45523;BME280;31254;51.680;5.394;2023-01-31T00:51:23;102503.72;;;2.79;86.31
45523;BME280;31254;51.680;5.394;2023-01-31T00:53:52;102522.94;;;2.93;85.57
45523;BME280;31254;51.680;5.394;2023-01-31T00:56:23;102428.75;;;2.43;86.01
45523;BME280;31254;51.680;5.394;2023-01-31T00:58:52;102505.63;;;2.99;85.58
45523;BME280;31254;51.680;5.394;2023-01-31T01:01:27;102521.28;;;3.13;85.68
45523;BME280;31254;51.680;5.394;2023-01-31T01:03:55;102506.66;;;3.19;86.22
45523;BME280;31254;51.680;5.394;2023-01-31T01:06:26;102490.63;;;3.14;85.18
45523;BME280;31254;51.680;5.394;2023-01-31T01:08:56;102493.84;;;3.24;85.29
45523;BME280;31254;51.680;5.394;2023-01-31T01:11:31;102488.50;;;3.22;85.49
45523;BME280;31254;51.680;5.394;2023-01-31T01:14:00;102488.50;;;3.22;86.02
45523;BME280;31254;51.680;5.394;2023-01-31T01:16:33;102483.00;;;3.25;85.81
45523;BME280;31254;51.680;5.394;2023-01-31T01:19:06;102482.88;;;3.28;85.69
45523;BME280;31254;51.680;5.394;2023-01-31T01:21:33;102474.72;;;3.30;85.17
45523;BME280;31254;51.680;5.394;2023-01-31T01:24:07;102470.66;;;3.20;85.70
45523;BME280;31254;51.680;5.394;2023-01-31T01:26:36;102469.78;;;3.19;85.62
45523;BME280;31254;51.680;5.394;2023-01-31T01:29:03;102473.91;;;3.28;85.80
45523;BME280;31254;51.680;5.394;2023-01-31T01:31:32;102452.19;;;3.09;85.66
45523;BME280;31254;51.680;5.394;2023-01-31T01:34:03;102469.00;;;3.16;85.96
45523;BME280;31254;51.680;5.394;2023-01-31T01:36:33;102471.53;;;3.20;86.20
45523;BME280;31254;51.680;5.394;2023-01-31T01:39:01;102484.25;;;3.17;86.58
45523;BME280;31254;51.680;5.394;2023-01-31T01:41:29;102340.19;;;2.34;85.97
45523;BME280;31254;51.680;5.394;2023-01-31T01:43:57;102448.69;;;3.07;85.65
45523;BME280;31254;51.680;5.394;2023-01-31T01:46:41;102473.41;;;3.18;85.60
45523;BME280;31254;51.680;5.394;2023-01-31T01:49:34;102444.34;;;3.03;85.66
45523;BME280;31254;51.680;5.394;2023-01-31T01:52:04;102467.16;;;3.18;85.57
45523;BME280;31254;51.680;5.394;2023-01-31T01:54:43;102463.63;;;3.16;85.99
45523;BME280;31254;51.680;5.394;2023-01-31T01:57:16;102438.44;;;2.93;86.34
45523;BME280;31254;51.680;5.394;2023-01-31T01:59:51;102477.44;;;3.08;86.02
45523;BME280;31254;51.680;5.394;2023-01-31T02:02:19;102477.44;;;3.08;85.59
45523;BME280;31254;51.680;5.394;2023-01-31T02:04:48;102469.28;;;3.09;85.80
45523;BME280;31254;51.680;5.394;2023-01-31T02:07:15;102485.53;;;3.08;85.89
45523;BME280;31254;51.680;5.394;2023-01-31T02:10:03;102477.56;;;3.05;86.64
45523;BME280;31254;51.680;5.394;2023-01-31T02:12:31;102448.53;;;2.88;86.29
45523;BME280;31254;51.680;5.394;2023-01-31T02:15:01;102442.41;;;2.84;86.50
45523;BME280;31254;51.680;5.394;2023-01-31T02:17:30;102481.06;;;3.07;86.34
45523;BME280;31254;51.680;5.394;2023-01-31T02:31:09;102493.34;;;3.36;85.38
45523;BME280;31254;51.680;5.394;2023-01-31T02:33:52;102490.47;;;3.41;85.39
45523;BME280;31254;51.680;5.394;2023-01-31T02:42:46;102472.00;;;3.52;85.99
45523;BME280;31254;51.680;5.394;2023-01-31T02:45:43;102455.22;;;3.45;85.01
45523;BME280;31254;51.680;5.394;2023-01-31T02:54:14;102457.19;;;3.62;85.72
45523;BME280;31254;51.680;5.394;2023-01-31T02:56:49;102463.41;;;3.64;85.87
45523;BME280;31254;51.680;5.394;2023-01-31T02:59:20;102450.84;;;3.63;85.75
45523;BME280;31254;51.680;5.394;2023-01-31T03:02:01;102446.38;;;3.62;85.54
45523;BME280;31254;51.680;5.394;2023-01-31T03:04:32;102411.28;;;3.42;85.58
45523;BME280;31254;51.680;5.394;2023-01-31T03:07:06;102449.75;;;3.67;85.84
45523;BME280;31254;51.680;5.394;2023-01-31T03:10:19;102450.78;;;3.65;85.99
45523;BME280;31254;51.680;5.394;2023-01-31T03:21:39;102451.44;;;3.70;86.01
45523;BME280;31254;51.680;5.394;2023-01-31T03:24:10;102445.88;;;3.75;85.71
45523;BME280;31254;51.680;5.394;2023-01-31T03:26:38;102437.09;;;3.70;85.98
45523;BME280;31254;51.680;5.394;2023-01-31T03:29:08;102432.69;;;3.67;86.34
45523;BME280;31254;51.680;5.394;2023-01-31T03:31:44;102429.25;;;3.63;86.00
45523;BME280;31254;51.680;5.394;2023-01-31T03:34:16;102463.47;;;3.83;86.53
45523;BME280;31254;51.680;5.394;2023-01-31T03:42:02;102409.31;;;3.66;86.55
45523;BME280;31254;51.680;5.394;2023-01-31T03:44:42;102398.69;;;3.63;86.43
45523;BME280;31254;51.680;5.394;2023-01-31T03:47:20;102436.34;;;3.87;86.67
45523;BME280;31254;51.680;5.394;2023-01-31T03:49:50;102396.66;;;3.68;86.66
45523;BME280;31254;51.680;5.394;2023-01-31T03:52:21;102421.97;;;3.86;86.98
45523;BME280;31254;51.680;5.394;2023-01-31T03:54:57;102423.56;;;3.90;86.46
45523;BME280;31254;51.680;5.394;2023-01-31T03:57:29;102421.00;;;3.87;86.06
45523;BME280;31254;51.680;5.394;2023-01-31T03:59:58;102429.66;;;3.95;86.36
45523;BME280;31254;51.680;5.394;2023-01-31T04:02:34;102411.16;;;3.86;86.37
45523;BME280;31254;51.680;5.394;2023-01-31T04:05:13;102420.66;;;3.95;86.35
45523;BME280;31254;51.680;5.394;2023-01-31T04:07:41;102425.88;;;3.99;86.04
45523;BME280;31254;51.680;5.394;2023-01-31T04:10:20;102417.16;;;3.93;86.49
45523;BME280;31254;51.680;5.394;2023-01-31T04:12:46;102414.34;;;3.96;86.59
45523;BME280;31254;51.680;5.394;2023-01-31T04:15:14;102411.63;;;3.96;86.89
45523;BME280;31254;51.680;5.394;2023-01-31T04:17:41;102415.19;;;3.96;87.27
45523;BME280;31254;51.680;5.394;2023-01-31T04:20:08;102412.63;;;3.93;86.77
45523;BME280;31254;51.680;5.394;2023-01-31T04:22:36;102410.06;;;3.90;86.37
45523;BME280;31254;51.680;5.394;2023-01-31T04:25:03;102390.69;;;3.80;87.00
45523;BME280;31254;51.680;5.394;2023-01-31T04:27:31;102410.19;;;3.87;86.68
45523;BME280;31254;51.680;5.394;2023-01-31T04:29:57;102417.56;;;3.83;87.02
45523;BME280;31254;51.680;5.394;2023-01-31T04:32:26;102395.75;;;3.67;87.53
45523;BME280;31254;51.680;5.394;2023-01-31T04:34:53;102414.28;;;3.77;87.52
45523;BME280;31254;51.680;5.394;2023-01-31T04:37:20;102432.38;;;3.75;87.62
45523;BME280;31254;51.680;5.394;2023-01-31T04:39:46;102418.06;;;3.73;87.55
45523;BME280;31254;51.680;5.394;2023-01-31T04:42:13;102405.63;;;3.69;87.77
45523;BME280;31254;51.680;5.394;2023-01-31T04:44:39;102389.81;;;3.59;88.45
45523;BME280;31254;51.680;5.394;2023-01-31T04:47:06;102381.31;;;3.48;88.33
45523;BME280;31254;51.680;5.394;2023-01-31T04:49:33;102386.41;;;3.56;88.32
45523;BME280;31254;51.680;5.394;2023-01-31T04:51:59;102388.34;;;3.52;88.42
45523;BME280;31254;51.680;5.394;2023-01-31T04:54:26;102357.66;;;3.34;88.75
45523;BME280;31254;51.680;5.394;2023-01-31T04:56:55;102377.75;;;3.47;89.15
45523;BME280;31254;51.680;5.394;2023-01-31T04:59:21;102376.00;;;3.46;88.91
45523;BME280;31254;51.680;5.394;2023-01-31T05:01:48;102366.50;;;3.38;88.64
45523;BME280;31254;51.680;5.394;2023-01-31T05:04:14;102344.97;;;3.36;88.48
45523;BME280;31254;51.680;5.394;2023-01-31T05:06:41;102349.06;;;3.45;88.39
45523;BME280;31254;51.680;5.394;2023-01-31T05:09:08;102364.59;;;3.60;88.84
45523;BME280;31254;51.680;5.394;2023-01-31T05:11:34;102362.66;;;3.64;88.25
45523;BME280;31254;51.680;5.394;2023-01-31T05:14:01;102366.84;;;3.71;87.84
45523;BME280;31254;51.680;5.394;2023-01-31T05:16:28;102377.44;;;3.76;87.88
45523;BME280;31254;51.680;5.394;2023-01-31T05:18:55;102374.63;;;3.77;88.01
45523;BME280;31254;51.680;5.394;2023-01-31T05:21:24;102369.09;;;3.80;88.16
45523;BME280;31254;51.680;5.394;2023-01-31T05:23:50;102369.09;;;3.80;87.40
45523;BME280;31254;51.680;5.394;2023-01-31T05:26:19;102326.28;;;3.52;88.46
45523;BME280;31254;51.680;5.394;2023-01-31T05:28:46;102340.06;;;3.66;87.65
45523;BME280;31254;51.680;5.394;2023-01-31T05:31:13;102367.09;;;3.86;88.44
45523;BME280;31254;51.680;5.394;2023-01-31T05:33:39;102304.63;;;3.54;87.86
45523;BME280;31254;51.680;5.394;2023-01-31T05:36:06;102352.56;;;3.88;87.99
45523;BME280;31254;51.680;5.394;2023-01-31T05:38:35;102352.50;;;3.90;88.43
45523;BME280;31254;51.680;5.394;2023-01-31T05:41:02;102313.06;;;3.66;88.58
45523;BME280;31254;51.680;5.394;2023-01-31T05:43:29;102344.31;;;3.91;88.56
45523;BME280;31254;51.680;5.394;2023-01-31T05:45:56;102330.31;;;3.83;87.95
45523;BME280;31254;51.680;5.394;2023-01-31T05:48:22;102354.00;;;3.97;88.38
45523;BME280;31254;51.680;5.394;2023-01-31T05:50:51;102335.50;;;3.88;88.11
45523;BME280;31254;51.680;5.394;2023-01-31T05:53:18;102354.72;;;4.00;88.86
45523;BME280;31254;51.680;5.394;2023-01-31T05:55:48;102350.19;;;4.01;87.93
45523;BME280;31254;51.680;5.394;2023-01-31T05:58:15;102342.88;;;4.03;88.22
45523;BME280;31254;51.680;5.394;2023-01-31T06:00:41;102345.56;;;4.03;88.36
45523;BME280;31254;51.680;5.394;2023-01-31T06:03:11;102321.59;;;3.97;88.27
45523;BME280;31254;51.680;5.394;2023-01-31T06:05:37;102338.66;;;3.97;88.51
45523;BME280;31254;51.680;5.394;2023-01-31T06:08:06;102340.03;;;4.06;87.98
45523;BME280;31254;51.680;5.394;2023-01-31T06:10:32;102347.88;;;4.12;87.83
45523;BME280;31254;51.680;5.394;2023-01-31T06:12:59;102330.28;;;4.03;88.34
45523;BME280;31254;51.680;5.394;2023-01-31T06:15:25;102339.03;;;4.09;88.17
45523;BME280;31254;51.680;5.394;2023-01-31T06:17:52;102336.84;;;4.17;87.81
45523;BME280;31254;51.680;5.394;2023-01-31T06:20:19;102304.34;;;3.99;88.13
45523;BME280;31254;51.680;5.394;2023-01-31T06:22:45;102339.41;;;4.20;87.99
45523;BME280;31254;51.680;5.394;2023-01-31T06:25:12;102330.41;;;4.19;87.90
45523;BME280;31254;51.680;5.394;2023-01-31T06:27:41;102337.50;;;4.22;87.98
45523;BME280;31254;51.680;5.394;2023-01-31T06:30:11;102295.16;;;4.03;87.86
45523;BME280;31254;51.680;5.394;2023-01-31T06:32:38;102323.13;;;4.21;88.08
45523;BME280;31254;51.680;5.394;2023-01-31T06:35:05;102318.50;;;4.24;88.04
45523;BME280;31254;51.680;5.394;2023-01-31T06:37:34;102319.38;;;4.24;88.26
45523;BME280;31254;51.680;5.394;2023-01-31T06:40:06;102129.13;;;3.17;88.38
45523;BME280;31254;51.680;5.394;2023-01-31T06:42:32;102312.09;;;4.26;88.36
45523;BME280;31254;51.680;5.394;2023-01-31T06:44:59;102307.50;;;4.28;87.84
45523;BME280;31254;51.680;5.394;2023-01-31T06:47:26;102283.91;;;4.13;87.94
45523;BME280;31254;51.680;5.394;2023-01-31T06:49:52;102293.69;;;4.15;88.00
45523;BME280;31254;51.680;5.394;2023-01-31T06:52:19;102302.38;;;4.22;88.12
45523;BME280;31254;51.680;5.394;2023-01-31T06:54:46;102316.41;;;4.30;87.68
45523;BME280;31254;51.680;5.394;2023-01-31T06:57:12;102294.13;;;4.25;87.45
45523;BME280;31254;51.680;5.394;2023-01-31T06:59:41;102305.22;;;4.38;87.67
45523;BME280;31254;51.680;5.394;2023-01-31T07:02:10;102308.72;;;4.40;87.85
45523;BME280;31254;51.680;5.394;2023-01-31T07:04:37;102300.63;;;4.40;87.29
45523;BME280;31254;51.680;5.394;2023-01-31T07:07:03;102298.78;;;4.40;87.27
45523;BME280;31254;51.680;5.394;2023-01-31T07:09:30;102294.91;;;4.46;87.33
45523;BME280;31254;51.680;5.394;2023-01-31T07:11:56;102294.84;;;4.48;87.19
45523;BME280;31254;51.680;5.394;2023-01-31T07:14:23;102293.00;;;4.48;87.49
45523;BME280;31254;51.680;5.394;2023-01-31T07:16:50;102293.91;;;4.49;87.55
45523;BME280;31254;51.680;5.394;2023-01-31T07:19:17;102290.31;;;4.48;87.19
45523;BME280;31254;51.680;5.394;2023-01-31T07:21:43;102274.91;;;4.50;87.56
45523;BME280;31254;51.680;5.394;2023-01-31T07:24:10;102270.28;;;4.52;87.17
45523;BME280;31254;51.680;5.394;2023-01-31T07:26:39;102264.19;;;4.49;87.55
45523;BME280;31254;51.680;5.394;2023-01-31T07:29:06;102251.81;;;4.43;87.65
45523;BME280;31254;51.680;5.394;2023-01-31T07:31:32;102242.91;;;4.60;88.87
45523;BME280;31254;51.680;5.394;2023-01-31T07:33:59;102285.44;;;4.74;88.60
45523;BME280;31254;51.680;5.394;2023-01-31T07:36:26;102278.13;;;4.93;88.90
45523;BME280;31254;51.680;5.394;2023-01-31T07:38:54;102241.63;;;4.67;88.80
45523;BME280;31254;51.680;5.394;2023-01-31T07:41:24;102269.69;;;4.82;88.96
45523;BME280;31254;51.680;5.394;2023-01-31T07:43:51;102254.81;;;4.73;88.45
45523;BME280;31254;51.680;5.394;2023-01-31T07:46:18;102261.66;;;4.81;88.30
45523;BME280;31254;51.680;5.394;2023-01-31T07:48:45;102269.78;;;4.81;87.86
45523;BME280;31254;51.680;5.394;2023-01-31T07:51:15;102271.69;;;4.79;87.54
45523;BME280;31254;51.680;5.394;2023-01-31T07:53:44;102272.72;;;4.76;87.31
45523;BME280;31254;51.680;5.394;2023-01-31T07:56:13;102273.13;;;4.86;87.73
45523;BME280;31254;51.680;5.394;2023-01-31T07:58:41;102272.16;;;4.87;87.28
45523;BME280;31254;51.680;5.394;2023-01-31T08:01:13;102234.94;;;4.74;87.63
45523;BME280;31254;51.680;5.394;2023-01-31T08:03:59;102229.72;;;4.71;86.95
45523;BME280;31254;51.680;5.394;2023-01-31T08:06:45;102248.47;;;4.92;87.27
45523;BME280;31254;51.680;5.394;2023-01-31T08:09:14;102250.78;;;5.00;88.96
45523;BME280;31254;51.680;5.394;2023-01-31T08:11:41;102247.22;;;4.99;88.43
45523;BME280;31254;51.680;5.394;2023-01-31T08:14:08;102249.69;;;5.04;88.28
45523;BME280;31254;51.680;5.394;2023-01-31T08:16:35;102255.72;;;5.09;87.87
45523;BME280;31254;51.680;5.394;2023-01-31T08:19:02;102248.47;;;5.09;87.15
45523;BME280;31254;51.680;5.394;2023-01-31T08:21:31;102244.66;;;5.13;87.71
45523;BME280;31254;51.680;5.394;2023-01-31T08:23:58;102234.63;;;5.16;87.33
45523;BME280;31254;51.680;5.394;2023-01-31T08:26:25;102235.50;;;5.16;87.03
45523;BME280;31254;51.680;5.394;2023-01-31T08:28:54;102234.47;;;5.19;87.27
45523;BME280;31254;51.680;5.394;2023-01-31T08:31:25;102233.34;;;5.23;87.34
45523;BME280;31254;51.680;5.394;2023-01-31T08:33:53;102103.03;;;4.46;87.09
45523;BME280;31254;51.680;5.394;2023-01-31T08:36:23;102221.41;;;5.27;86.81
45523;BME280;31254;51.680;5.394;2023-01-31T08:38:51;102201.19;;;5.17;86.44
45523;BME280;31254;51.680;5.394;2023-01-31T08:41:19;102221.09;;;5.33;86.65
45523;BME280;31254;51.680;5.394;2023-01-31T08:43:46;102196.34;;;5.23;86.78
45523;BME280;31254;51.680;5.394;2023-01-31T08:46:27;102180.03;;;5.25;86.50
45523;BME280;31254;51.680;5.394;2023-01-31T08:48:59;102212.91;;;5.50;86.67
45523;BME280;31254;51.680;5.394;2023-01-31T08:51:25;102208.91;;;5.58;86.27
45523;BME280;31254;51.680;5.394;2023-01-31T08:53:52;102189.19;;;5.56;86.15
45523;BME280;31254;51.680;5.394;2023-01-31T08:56:20;102127.31;;;5.32;85.97
45523;BME280;31254;51.680;5.394;2023-01-31T08:58:51;102143.75;;;5.45;85.79
45523;BME280;31254;51.680;5.394;2023-01-31T09:01:19;102194.25;;;5.78;86.03
45523;BME280;31254;51.680;5.394;2023-01-31T09:03:46;102168.66;;;5.67;85.84
45523;BME280;31254;51.680;5.394;2023-01-31T09:06:18;102189.72;;;5.78;86.10
45523;BME280;31254;51.680;5.394;2023-01-31T09:08:46;102188.66;;;5.81;86.23
45523;BME280;31254;51.680;5.394;2023-01-31T09:11:14;102185.44;;;5.90;85.78
45523;BME280;31254;51.680;5.394;2023-01-31T09:13:46;102167.97;;;5.96;85.72
45523;BME280;31254;51.680;5.394;2023-01-31T09:16:14;102167.66;;;6.02;85.59
45523;BME280;31254;51.680;5.394;2023-01-31T09:18:41;102147.72;;;6.03;85.35
45523;BME280;31254;51.680;5.394;2023-01-31T09:21:14;102151.22;;;6.21;84.78
45523;BME280;31254;51.680;5.394;2023-01-31T09:23:41;102149.28;;;6.23;84.38
45523;BME280;31254;51.680;5.394;2023-01-31T09:26:09;102191.28;;;6.46;84.47
45523;BME280;31254;51.680;5.394;2023-01-31T09:28:37;102179.56;;;6.46;83.92
45523;BME280;31254;51.680;5.394;2023-01-31T09:31:09;102194.84;;;6.63;84.12
45523;BME280;31254;51.680;5.394;2023-01-31T09:33:36;102177.38;;;6.52;83.97
45523;BME280;31254;51.680;5.394;2023-01-31T09:36:05;102188.81;;;6.57;84.41
45523;BME280;31254;51.680;5.394;2023-01-31T09:38:35;102186.31;;;6.54;84.41
45523;BME280;31254;51.680;5.394;2023-01-31T09:41:05;102180.50;;;6.61;84.49
45523;BME280;31254;51.680;5.394;2023-01-31T09:43:41;102170.81;;;6.56;84.27
45523;BME280;31254;51.680;5.394;2023-01-31T09:46:13;102150.81;;;6.43;84.81
45523;BME280;31254;51.680;5.394;2023-01-31T09:48:44;102196.75;;;6.61;84.80
45523;BME280;31254;51.680;5.394;2023-01-31T09:51:15;102188.72;;;6.59;85.02
45523;BME280;31254;51.680;5.394;2023-01-31T09:53:43;102182.59;;;6.55;84.88
45523;BME280;31254;51.680;5.394;2023-01-31T10:01:38;102167.56;;;6.66;85.67
45523;BME280;31254;51.680;5.394;2023-01-31T10:07:14;102152.53;;;6.74;84.90
45523;BME280;31254;51.680;5.394;2023-01-31T10:09:52;102116.88;;;6.66;84.74
45523;BME280;31254;51.680;5.394;2023-01-31T10:12:39;102155.56;;;6.84;84.69
45523;BME280;31254;51.680;5.394;2023-01-31T10:18:16;102168.72;;;6.76;84.62
45523;BME280;31254;51.680;5.394;2023-01-31T10:20:49;102118.59;;;6.53;85.09
45523;BME280;31254;51.680;5.394;2023-01-31T10:23:27;102166.44;;;6.84;86.29
45523;BME280;31254;51.680;5.394;2023-01-31T10:28:33;102145.22;;;6.61;85.64
45523;BME280;31254;51.680;5.394;2023-01-31T10:31:49;102170.91;;;6.85;85.53
45523;BME280;31254;51.680;5.394;2023-01-31T10:33:57;102176.00;;;6.90;85.23
45523;BME280;31254;51.680;5.394;2023-01-31T10:39:23;102156.56;;;6.98;84.82
45523;BME280;31254;51.680;5.394;2023-01-31T10:44:51;102160.66;;;7.19;85.90
45523;BME280;31254;51.680;5.394;2023-01-31T10:47:21;102166.09;;;7.19;85.47
45523;BME280;31254;51.680;5.394;2023-01-31T10:49:49;102161.72;;;7.17;85.56
45523;BME280;31254;51.680;5.394;2023-01-31T10:55:08;102146.41;;;7.16;85.41
45523;BME280;31254;51.680;5.394;2023-01-31T10:57:39;102095.72;;;6.87;85.38
45523;BME280;31254;51.680;5.394;2023-01-31T11:00:10;102149.41;;;7.40;86.09
45523;BME280;31254;51.680;5.394;2023-01-31T11:02:38;102114.41;;;7.21;85.83
45523;BME280;31254;51.680;5.394;2023-01-31T11:05:05;102068.00;;;6.97;85.71
45523;BME280;31254;51.680;5.394;2023-01-31T11:07:33;102129.16;;;7.31;85.38
45523;BME280;31254;51.680;5.394;2023-01-31T11:10:20;102128.59;;;7.40;85.33
45523;BME280;31254;51.680;5.394;2023-01-31T11:12:53;102125.88;;;7.40;85.19
45523;BME280;31254;51.680;5.394;2023-01-31T11:15:24;102107.22;;;7.48;85.06
45523;BME280;31254;51.680;5.394;2023-01-31T11:17:52;102109.13;;;7.61;84.62
45523;BME280;31254;51.680;5.394;2023-01-31T11:20:29;102109.03;;;7.62;84.43
45523;BME280;31254;51.680;5.394;2023-01-31T11:22:58;102109.22;;;7.59;84.59
45523;BME280;31254;51.680;5.394;2023-01-31T11:25:29;102112.31;;;7.67;86.08
45523;BME280;31254;51.680;5.394;2023-01-31T11:27:59;102100.78;;;7.64;85.82
45523;BME280;31254;51.680;5.394;2023-01-31T11:30:33;102121.25;;;7.69;85.39
45523;BME280;31254;51.680;5.394;2023-01-31T11:33:00;102076.00;;;7.41;85.58
45523;BME280;31254;51.680;5.394;2023-01-31T11:35:30;102112.41;;;7.66;85.42
45523;BME280;31254;51.680;5.394;2023-01-31T11:38:07;102116.22;;;7.63;85.42
45523;BME280;31254;51.680;5.394;2023-01-31T11:40:44;102108.06;;;7.63;85.61
45523;BME280;31254;51.680;5.394;2023-01-31T11:46:01;102097.47;;;7.73;86.02
45523;BME280;31254;51.680;5.394;2023-01-31T11:48:39;102072.97;;;7.60;85.81
45523;BME280;31254;51.680;5.394;2023-01-31T11:51:06;102018.91;;;7.28;85.48
45523;BME280;31254;51.680;5.394;2023-01-31T11:53:49;102093.38;;;7.80;85.60
45523;BME280;31254;51.680;5.394;2023-01-31T11:58:47;102064.38;;;7.81;86.18
45523;BME280;31254;51.680;5.394;2023-01-31T12:01:18;102096.81;;;7.97;86.40
45523;BME280;31254;51.680;5.394;2023-01-31T12:03:47;102090.06;;;7.90;85.72
45523;BME280;31254;51.680;5.394;2023-01-31T12:09:02;102090.97;;;8.03;86.09
45523;BME280;31254;51.680;5.394;2023-01-31T12:11:31;102096.41;;;8.03;86.02
45523;BME280;31254;51.680;5.394;2023-01-31T12:14:16;102077.88;;;7.95;85.93
45523;BME280;31254;51.680;5.394;2023-01-31T12:16:44;102082.06;;;8.01;86.18
45523;BME280;31254;51.680;5.394;2023-01-31T12:24:28;102092.06;;;8.00;86.44
45523;BME280;31254;51.680;5.394;2023-01-31T12:27:11;102085.06;;;7.96;86.74
45523;BME280;31254;51.680;5.394;2023-01-31T12:33:17;102086.94;;;7.96;86.66
45523;BME280;31254;51.680;5.394;2023-01-31T12:38:15;102085.94;;;7.97;87.03
45523;BME280;31254;51.680;5.394;2023-01-31T12:41:49;102098.34;;;8.01;86.96
45523;BME280;31254;51.680;5.394;2023-01-31T12:49:25;102075.91;;;8.12;86.96
45523;BME280;31254;51.680;5.394;2023-01-31T12:53:06;102072.53;;;8.21;86.94
45523;BME280;31254;51.680;5.394;2023-01-31T12:58:04;102051.66;;;8.09;87.25
45523;BME280;31254;51.680;5.394;2023-01-31T13:06:46;102055.31;;;8.08;87.52
45523;BME280;31254;51.680;5.394;2023-01-31T13:09:20;102066.97;;;8.10;87.68
45523;BME280;31254;51.680;5.394;2023-01-31T13:14:32;102034.06;;;7.87;88.39
45523;BME280;31254;51.680;5.394;2023-01-31T13:17:06;102035.09;;;7.99;88.20
45523;BME280;31254;51.680;5.394;2023-01-31T13:19:48;102065.78;;;8.14;88.05
45523;BME280;31254;51.680;5.394;2023-01-31T13:22:19;102063.72;;;8.17;88.09
45523;BME280;31254;51.680;5.394;2023-01-31T13:24:56;102058.06;;;8.20;88.46
45523;BME280;31254;51.680;5.394;2023-01-31T13:27:32;102044.25;;;8.11;88.49
45523;BME280;31254;51.680;5.394;2023-01-31T13:30:23;102052.13;;;8.28;88.53
45523;BME280;31254;51.680;5.394;2023-01-31T13:32:56;102053.53;;;8.34;87.89
45523;BME280;31254;51.680;5.394;2023-01-31T13:35:38;102063.34;;;8.36;87.91
45523;BME280;31254;51.680;5.394;2023-01-31T13:38:12;102047.56;;;8.41;88.08
45523;BME280;31254;51.680;5.394;2023-01-31T13:40:47;102047.19;;;8.48;87.83
45523;BME280;31254;51.680;5.394;2023-01-31T13:43:18;101967.94;;;8.14;87.83
45523;BME280;31254;51.680;5.394;2023-01-31T13:46:06;102008.69;;;8.54;87.63
45523;BME280;31254;51.680;5.394;2023-01-31T13:48:46;102041.53;;;8.76;87.26
45523;BME280;31254;51.680;5.394;2023-01-31T13:53:54;102045.22;;;8.75;89.37
45523;BME280;31254;51.680;5.394;2023-01-31T13:56:34;102027.84;;;8.65;88.86
45523;BME280;31254;51.680;5.394;2023-01-31T13:59:01;101974.19;;;8.54;90.10
45523;BME280;31254;51.680;5.394;2023-01-31T14:01:34;102031.72;;;8.87;89.43
45523;BME280;31254;51.680;5.394;2023-01-31T14:12:00;102046.88;;;8.91;89.11
45523;BME280;31254;51.680;5.394;2023-01-31T14:17:13;102035.09;;;8.77;88.13
45523;BME280;31254;51.680;5.394;2023-01-31T14:27:18;102078.75;;;8.76;88.63
45523;BME280;31254;51.680;5.394;2023-01-31T14:30:01;102083.44;;;8.74;89.04
45523;BME280;31254;51.680;5.394;2023-01-31T14:32:46;102047.63;;;8.54;88.62
45523;BME280;31254;51.680;5.394;2023-01-31T14:40:47;102103.69;;;8.70;88.81
45523;BME280;31254;51.680;5.394;2023-01-31T14:43:29;102111.84;;;8.70;88.86
45523;BME280;31254;51.680;5.394;2023-01-31T14:54:03;102116.63;;;8.79;88.81
45523;BME280;31254;51.680;5.394;2023-01-31T14:59:32;102124.03;;;8.77;88.55
45523;BME280;31254;51.680;5.394;2023-01-31T15:02:14;102132.09;;;8.78;88.65
45523;BME280;31254;51.680;5.394;2023-01-31T15:04:44;102111.84;;;8.70;89.09
45523;BME280;31254;51.680;5.394;2023-01-31T15:07:21;102125.22;;;8.73;89.07
45523;BME280;31254;51.680;5.394;2023-01-31T15:09:48;102126.41;;;8.69;88.89
45523;BME280;31254;51.680;5.394;2023-01-31T15:12:56;102137.19;;;8.70;89.17
45523;BME280;31254;51.680;5.394;2023-01-31T15:15:35;102125.53;;;8.55;88.96
45523;BME280;31254;51.680;5.394;2023-01-31T15:18:19;102123.47;;;8.59;89.14
45523;BME280;31254;51.680;5.394;2023-01-31T15:20:52;102134.44;;;8.57;89.26
45523;BME280;31254;51.680;5.394;2023-01-31T15:23:27;102098.84;;;8.48;89.36
45523;BME280;31254;51.680;5.394;2023-01-31T15:25:56;102138.78;;;8.60;89.64
45523;BME280;31254;51.680;5.394;2023-01-31T15:28:25;102125.97;;;8.62;89.77
45523;BME280;31254;51.680;5.394;2023-01-31T15:30:59;102129.56;;;8.63;89.59
45523;BME280;31254;51.680;5.394;2023-01-31T15:33:39;102131.41;;;8.62;89.45
45523;BME280;31254;51.680;5.394;2023-01-31T15:36:31;102132.78;;;8.55;90.10